createdAt,value
2018-03-02T00:00:55.390Z,1007.85
2018-03-02T00:01:55.395Z,1007.84
2018-03-02T00:02:55.402Z,1007.76
2018-03-02T00:03:55.409Z,1007.78
2018-03-02T00:05:55.426Z,1007.77
2018-03-02T00:06:55.436Z,1007.81
2018-03-02T00:07:55.439Z,1007.82
2018-03-02T00:08:55.448Z,1007.81
2018-03-02T00:09:55.554Z,1007.75
2018-03-02T00:10:55.463Z,1007.81
2018-03-02T00:11:55.473Z,1007.74
2018-03-02T00:12:55.479Z,1007.73
2018-03-02T00:13:55.486Z,1007.75
2018-03-02T00:14:55.494Z,1007.75
2018-03-02T00:15:55.502Z,1007.74
2018-03-02T00:16:55.511Z,1007.7
2018-03-02T00:17:55.516Z,1007.67
2018-03-02T00:18:55.530Z,1007.71
2018-03-02T00:19:55.533Z,1007.69
2018-03-02T00:21:55.546Z,1007.65
2018-03-02T00:22:55.607Z,1007.61
2018-03-02T00:23:55.562Z,1007.61
2018-03-02T00:24:55.568Z,1007.66
2018-03-02T00:25:55.576Z,1007.59
2018-03-02T00:26:55.584Z,1007.63
2018-03-02T00:27:55.593Z,1007.59
2018-03-02T00:28:55.598Z,1007.65
2018-03-02T00:29:55.607Z,1007.61
2018-03-02T00:30:55.614Z,1007.58
2018-03-02T00:31:55.621Z,1007.56
2018-03-02T00:32:55.629Z,1007.52
2018-03-02T00:33:55.638Z,1007.5
2018-03-02T00:34:55.645Z,1007.5
2018-03-02T00:35:55.652Z,1007.51
2018-03-02T00:37:55.667Z,1007.5
2018-03-02T00:38:55.675Z,1007.5
2018-03-02T00:39:55.681Z,1007.5
2018-03-02T00:40:55.690Z,1007.5
2018-03-02T00:41:55.697Z,1007.48
2018-03-02T00:42:55.704Z,1007.5
2018-03-02T00:43:55.714Z,1007.43
2018-03-02T00:44:55.719Z,1007.43
2018-03-02T00:45:55.727Z,1007.37
2018-03-02T00:46:55.734Z,1007.34
2018-03-02T00:47:55.746Z,1007.29
2018-03-02T00:48:55.749Z,1007.26
2018-03-02T00:49:55.767Z,1007.28
2018-03-02T00:50:55.766Z,1007.24
2018-03-02T00:52:55.782Z,1007.28
2018-03-02T00:53:55.787Z,1007.17
2018-03-02T00:54:55.796Z,1007.2
2018-03-02T00:55:55.803Z,1007.21
2018-03-02T00:56:55.810Z,1007.17
2018-03-02T00:57:55.849Z,1007.19
2018-03-02T00:58:55.829Z,1007.16
2018-03-02T00:59:55.833Z,1007.18
2018-03-02T01:00:55.840Z,1007.21
2018-03-02T01:01:55.854Z,1007.18
2018-03-02T01:02:55.855Z,1007.15
2018-03-02T01:03:55.863Z,1007.14
2018-03-02T01:04:55.870Z,1007.13
2018-03-02T01:05:55.876Z,1007.17
2018-03-02T01:06:55.889Z,1007.1
2018-03-02T01:07:55.893Z,1007.09
2018-03-02T01:08:55.905Z,1007.09
2018-03-02T01:09:55.907Z,1007.06
2018-03-02T01:10:55.915Z,1007.11
2018-03-02T01:11:55.922Z,1007.06
2018-03-02T01:12:55.929Z,1007.06
2018-03-02T01:13:55.937Z,1007.02
2018-03-02T01:14:55.945Z,1006.99
2018-03-02T01:15:55.952Z,1006.93
2018-03-02T01:16:55.959Z,1006.96
2018-03-02T01:17:55.967Z,1006.93
2018-03-02T01:18:55.975Z,1006.92
2018-03-02T01:19:55.981Z,1006.95
2018-03-02T01:20:55.992Z,1006.94
2018-03-02T01:21:55.998Z,1006.86
2018-03-02T01:22:56.004Z,1006.87
2018-03-02T01:24:56.019Z,1006.83
2018-03-02T01:25:56.027Z,1006.79
2018-03-02T01:26:56.034Z,1006.8
2018-03-02T01:27:56.042Z,1006.74
2018-03-02T01:28:56.049Z,1006.74
2018-03-02T01:29:56.058Z,1006.68
2018-03-02T01:30:56.063Z,1006.68
2018-03-02T01:31:56.072Z,1006.66
2018-03-02T01:32:56.079Z,1006.64
2018-03-02T01:33:56.086Z,1006.63
2018-03-02T01:34:56.093Z,1006.59
2018-03-02T01:35:56.101Z,1006.6
2018-03-02T01:36:56.109Z,1006.58
2018-03-02T01:37:56.116Z,1006.58
2018-03-02T01:38:56.123Z,1006.58
2018-03-02T01:40:56.138Z,1006.53
2018-03-02T01:41:56.145Z,1006.52
2018-03-02T01:42:56.154Z,1006.51
2018-03-02T01:43:56.161Z,1006.55
2018-03-02T01:44:56.167Z,1006.5
2018-03-02T01:45:56.175Z,1006.52
2018-03-02T01:46:56.182Z,1006.48
2018-03-02T01:47:56.190Z,1006.51
2018-03-02T01:48:56.197Z,1006.52
2018-03-02T01:49:56.204Z,1006.47
2018-03-02T01:50:56.211Z,1006.48
2018-03-02T01:51:56.220Z,1006.48
2018-03-02T01:52:56.227Z,1006.38
2018-03-02T01:53:56.235Z,1006.44
2018-03-02T01:54:56.242Z,1006.32
2018-03-02T01:56:56.256Z,1006.38
2018-03-02T01:57:56.264Z,1006.32
2018-03-02T01:58:56.272Z,1006.32
2018-03-02T01:59:56.278Z,1006.21
2018-03-02T02:00:56.284Z,1006.23
2018-03-02T02:01:56.292Z,1006.18
2018-03-02T02:02:56.300Z,1006.18
2018-03-02T02:03:56.306Z,1006.23
2018-03-02T02:04:56.315Z,1006.25
2018-03-02T02:05:56.322Z,1006.17
2018-03-02T02:06:56.328Z,1006.13
2018-03-02T02:07:56.337Z,1006.11
2018-03-02T02:08:56.344Z,1006.1
2018-03-02T02:09:56.351Z,1006.06
2018-03-02T02:10:56.357Z,1006.1
2018-03-02T02:12:56.373Z,1006.04
2018-03-02T02:13:56.381Z,1006
2018-03-02T02:14:56.388Z,1005.96
2018-03-02T02:15:56.395Z,1005.94
2018-03-02T02:16:56.403Z,1005.95
2018-03-02T02:17:56.410Z,1005.88
2018-03-02T02:18:56.417Z,1005.84
2018-03-02T02:19:56.425Z,1005.86
2018-03-02T02:20:56.433Z,1005.82
2018-03-02T02:21:56.439Z,1005.83
2018-03-02T02:22:56.447Z,1005.82
2018-03-02T02:23:56.454Z,1005.79
2018-03-02T02:24:56.462Z,1005.84
2018-03-02T02:25:56.469Z,1005.74
2018-03-02T02:27:56.485Z,1005.73
2018-03-02T02:28:56.491Z,1005.71
2018-03-02T02:29:56.499Z,1005.7
2018-03-02T02:30:56.508Z,1005.73
2018-03-02T02:31:56.514Z,1005.7
2018-03-02T02:32:56.521Z,1005.75
2018-03-02T02:33:56.528Z,1005.77
2018-03-02T02:34:56.536Z,1005.72
2018-03-02T02:35:56.543Z,1005.67
2018-03-02T02:36:56.549Z,1005.64
2018-03-02T02:37:56.563Z,1005.64
2018-03-02T02:38:56.570Z,1005.62
2018-03-02T02:39:56.571Z,1005.63
2018-03-02T02:40:56.580Z,1005.61
2018-03-02T02:41:56.588Z,1005.67
2018-03-02T02:42:56.595Z,1005.65
2018-03-02T02:43:56.602Z,1005.64
2018-03-02T02:44:56.609Z,1005.66
2018-03-02T02:45:56.616Z,1005.71
2018-03-02T02:46:56.622Z,1005.71
2018-03-02T02:47:56.630Z,1005.69
2018-03-02T02:48:56.640Z,1005.71
2018-03-02T02:49:56.647Z,1005.64
2018-03-02T02:50:56.652Z,1005.74
2018-03-02T02:51:56.660Z,1005.67
2018-03-02T02:52:56.667Z,1005.7
2018-03-02T02:53:56.674Z,1005.71
2018-03-02T02:54:56.687Z,1005.69
2018-03-02T02:55:56.689Z,1005.7
2018-03-02T02:56:56.696Z,1005.65
2018-03-02T02:57:56.704Z,1005.7
2018-03-02T02:59:56.737Z,1005.68
2018-03-02T03:00:56.725Z,1005.68
2018-03-02T03:01:56.733Z,1005.63
2018-03-02T03:02:56.745Z,1005.56
2018-03-02T03:03:56.751Z,1005.57
2018-03-02T03:04:56.755Z,1005.57
2018-03-02T03:05:56.761Z,1005.59
2018-03-02T03:06:56.768Z,1005.55
2018-03-02T03:07:56.776Z,1005.58
2018-03-02T03:08:56.782Z,1005.53
2018-03-02T03:09:56.790Z,1005.54
2018-03-02T03:10:56.798Z,1005.53
2018-03-02T03:11:56.804Z,1005.51
2018-03-02T03:12:56.811Z,1005.54
2018-03-02T03:13:56.819Z,1005.53
2018-03-02T03:15:56.838Z,1005.43
2018-03-02T03:16:56.840Z,1005.52
2018-03-02T03:17:56.848Z,1005.48
2018-03-02T03:18:56.858Z,1005.51
2018-03-02T03:19:56.862Z,1005.5
2018-03-02T03:20:56.869Z,1005.51
2018-03-02T03:21:56.877Z,1005.51
2018-03-02T03:22:56.885Z,1005.49
2018-03-02T03:23:56.891Z,1005.49
2018-03-02T03:24:56.900Z,1005.5
2018-03-02T03:25:56.906Z,1005.51
2018-03-02T03:26:56.913Z,1005.47
2018-03-02T03:27:56.920Z,1005.47
2018-03-02T03:28:56.927Z,1005.45
2018-03-02T03:29:56.935Z,1005.52
2018-03-02T03:31:56.949Z,1005.41
2018-03-02T03:32:56.956Z,1005.34
2018-03-02T03:33:56.964Z,1005.34
2018-03-02T03:34:56.971Z,1005.37
2018-03-02T03:35:56.979Z,1005.41
2018-03-02T03:36:56.986Z,1005.41
2018-03-02T03:37:56.993Z,1005.4
2018-03-02T03:38:57.002Z,1005.35
2018-03-02T03:39:57.107Z,1005.33
2018-03-02T03:40:57.019Z,1005.36
2018-03-02T03:41:57.021Z,1005.36
2018-03-02T03:42:57.029Z,1005.34
2018-03-02T03:43:57.036Z,1005.33
2018-03-02T03:44:57.044Z,1005.31
2018-03-02T03:45:57.050Z,1005.34
2018-03-02T03:47:57.065Z,1005.29
2018-03-02T03:48:57.073Z,1005.29
2018-03-02T03:49:57.079Z,1005.25
2018-03-02T03:50:57.087Z,1005.21
2018-03-02T03:51:57.094Z,1005.18
2018-03-02T03:52:57.101Z,1005.25
2018-03-02T03:53:57.108Z,1005.16
2018-03-02T03:54:57.116Z,1005.12
2018-03-02T03:55:57.126Z,1005.15
2018-03-02T03:56:57.140Z,1005.01
2018-03-02T03:57:57.141Z,1005.07
2018-03-02T03:58:57.144Z,1005.14
2018-03-02T03:59:57.152Z,1005.03
2018-03-02T04:00:57.159Z,1005.02
2018-03-02T04:02:57.174Z,1004.99
2018-03-02T04:03:57.180Z,1004.99
2018-03-02T04:04:57.188Z,1004.98
2018-03-02T04:05:57.195Z,1004.95
2018-03-02T04:06:57.204Z,1004.99
2018-03-02T04:07:57.210Z,1004.93
2018-03-02T04:08:57.218Z,1004.96
2018-03-02T04:09:57.226Z,1005.03
2018-03-02T04:10:57.235Z,1004.93
2018-03-02T04:11:57.243Z,1004.96
2018-03-02T04:12:57.245Z,1004.98
2018-03-02T04:13:57.254Z,1005.01
2018-03-02T04:14:57.260Z,1004.98
2018-03-02T04:15:57.267Z,1005
2018-03-02T04:16:57.274Z,1004.97
2018-03-02T04:17:57.283Z,1004.92
2018-03-02T04:18:57.292Z,1004.9
2018-03-02T04:19:57.297Z,1004.95
2018-03-02T04:20:57.304Z,1004.88
2018-03-02T04:21:57.309Z,1004.88
2018-03-02T04:22:57.318Z,1004.85
2018-03-02T04:23:57.327Z,1004.87
2018-03-02T04:24:57.335Z,1004.88
2018-03-02T04:25:57.339Z,1004.93
2018-03-02T04:26:57.346Z,1004.89
2018-03-02T04:27:57.353Z,1004.9
2018-03-02T04:28:57.363Z,1004.91
2018-03-02T04:29:57.367Z,1004.91
2018-03-02T04:30:57.377Z,1004.96
2018-03-02T04:31:57.382Z,1004.84
2018-03-02T04:32:57.389Z,1004.9
2018-03-02T04:34:57.407Z,1004.93
2018-03-02T04:35:57.411Z,1004.92
2018-03-02T04:36:57.418Z,1004.86
2018-03-02T04:37:57.426Z,1004.87
2018-03-02T04:38:57.432Z,1004.94
2018-03-02T04:39:57.440Z,1004.96
2018-03-02T04:40:57.446Z,1004.89
2018-03-02T04:41:57.456Z,1004.88
2018-03-02T04:42:57.471Z,1004.93
2018-03-02T04:43:57.468Z,1004.85
2018-03-02T04:44:57.475Z,1004.83
2018-03-02T04:45:57.484Z,1004.73
2018-03-02T04:46:57.490Z,1004.69
2018-03-02T04:47:57.496Z,1004.68
2018-03-02T04:48:57.504Z,1004.67
2018-03-02T04:50:57.519Z,1004.68
2018-03-02T04:51:57.525Z,1004.69
2018-03-02T04:52:57.532Z,1004.61
2018-03-02T04:53:57.540Z,1004.67
2018-03-02T04:54:57.546Z,1004.56
2018-03-02T04:55:57.554Z,1004.58
2018-03-02T04:56:57.562Z,1004.59
2018-03-02T04:57:57.568Z,1004.6
2018-03-02T04:58:57.574Z,1004.67
2018-03-02T04:59:57.581Z,1004.63
2018-03-02T05:00:57.590Z,1004.67
2018-03-02T05:01:57.597Z,1004.65
2018-03-02T05:02:57.602Z,1004.6
2018-03-02T05:03:57.610Z,1004.58
2018-03-02T05:04:57.618Z,1004.63
2018-03-02T05:06:57.641Z,1004.57
2018-03-02T05:07:57.639Z,1004.58
2018-03-02T05:08:57.647Z,1004.58
2018-03-02T05:09:57.653Z,1004.57
2018-03-02T05:10:57.665Z,1004.57
2018-03-02T05:11:57.667Z,1004.62
2018-03-02T05:12:57.675Z,1004.59
2018-03-02T05:13:57.681Z,1004.62
2018-03-02T05:14:57.688Z,1004.63
2018-03-02T05:15:57.696Z,1004.62
2018-03-02T05:16:57.702Z,1004.56
2018-03-02T05:17:57.710Z,1004.58
2018-03-02T05:18:57.717Z,1004.63
2018-03-02T05:19:57.724Z,1004.55
2018-03-02T05:20:57.735Z,1004.52
2018-03-02T05:22:57.745Z,1004.54
2018-03-02T05:23:57.756Z,1004.55
2018-03-02T05:24:57.760Z,1004.56
2018-03-02T05:25:57.767Z,1004.51
2018-03-02T05:26:57.775Z,1004.5
2018-03-02T05:27:57.780Z,1004.51
2018-03-02T05:28:57.787Z,1004.54
2018-03-02T05:29:57.794Z,1004.54
2018-03-02T05:30:57.802Z,1004.51
2018-03-02T05:31:57.814Z,1004.55
2018-03-02T05:32:57.816Z,1004.53
2018-03-02T05:33:57.827Z,1004.49
2018-03-02T05:34:57.830Z,1004.47
2018-03-02T05:35:57.838Z,1004.56
2018-03-02T05:37:57.852Z,1004.47
2018-03-02T05:38:57.860Z,1004.51
2018-03-02T05:39:57.866Z,1004.5
2018-03-02T05:40:57.874Z,1004.48
2018-03-02T05:41:57.881Z,1004.49
2018-03-02T05:42:57.891Z,1004.43
2018-03-02T05:43:57.899Z,1004.49
2018-03-02T05:44:57.902Z,1004.41
2018-03-02T05:45:57.913Z,1004.36
2018-03-02T05:46:57.915Z,1004.38
2018-03-02T05:47:57.923Z,1004.37
2018-03-02T05:48:57.930Z,1004.37
2018-03-02T05:49:57.936Z,1004.39
2018-03-02T05:50:57.943Z,1004.41
2018-03-02T05:51:57.950Z,1004.36
2018-03-02T05:52:57.959Z,1004.35
2018-03-02T05:53:57.964Z,1004.37
2018-03-02T05:54:57.972Z,1004.31
2018-03-02T05:55:57.979Z,1004.34
2018-03-02T05:56:57.986Z,1004.36
2018-03-02T05:57:57.993Z,1004.38
2018-03-02T05:58:58.000Z,1004.43
2018-03-02T05:59:58.008Z,1004.33
2018-03-02T06:00:58.019Z,1004.32
2018-03-02T06:01:58.021Z,1004.31
2018-03-02T06:02:58.029Z,1004.34
2018-03-02T06:03:58.036Z,1004.29
2018-03-02T06:04:58.042Z,1004.35
2018-03-02T06:05:58.050Z,1004.32
2018-03-02T06:06:58.057Z,1004.36
2018-03-02T06:07:58.063Z,1004.32
2018-03-02T06:09:58.078Z,1004.32
2018-03-02T06:10:58.085Z,1004.36
2018-03-02T06:11:58.091Z,1004.34
2018-03-02T06:12:58.099Z,1004.39
2018-03-02T06:13:58.107Z,1004.38
2018-03-02T06:14:58.114Z,1004.38
2018-03-02T06:15:58.120Z,1004.41
2018-03-02T06:16:58.128Z,1004.4
2018-03-02T06:17:58.135Z,1004.42
2018-03-02T06:18:58.141Z,1004.42
2018-03-02T06:19:58.148Z,1004.43
2018-03-02T06:20:58.156Z,1004.45
2018-03-02T06:21:58.164Z,1004.41
2018-03-02T06:22:58.171Z,1004.42
2018-03-02T06:23:58.178Z,1004.38
2018-03-02T06:25:58.192Z,1004.37
2018-03-02T06:26:58.203Z,1004.41
2018-03-02T06:27:58.208Z,1004.45
2018-03-02T06:28:58.216Z,1004.42
2018-03-02T06:29:58.223Z,1004.47
2018-03-02T06:30:58.231Z,1004.45
2018-03-02T06:31:58.243Z,1004.46
2018-03-02T06:32:58.255Z,1004.44
2018-03-02T06:33:58.255Z,1004.45
2018-03-02T06:34:58.265Z,1004.41
2018-03-02T06:35:58.273Z,1004.4
2018-03-02T06:36:58.282Z,1004.36
2018-03-02T06:37:58.290Z,1004.39
2018-03-02T06:38:58.300Z,1004.42
2018-03-02T06:39:58.308Z,1004.47
2018-03-02T06:41:58.359Z,1004.49
2018-03-02T06:42:58.336Z,1004.47
2018-03-02T06:43:58.346Z,1004.5
2018-03-02T06:44:58.355Z,1004.5
2018-03-02T06:45:58.366Z,1004.46
2018-03-02T06:46:58.376Z,1004.47
2018-03-02T06:47:58.387Z,1004.51
2018-03-02T06:48:58.396Z,1004.55
2018-03-02T06:49:58.407Z,1004.52
2018-03-02T06:50:58.418Z,1004.5
2018-03-02T06:51:58.427Z,1004.47
2018-03-02T06:52:58.438Z,1004.5
2018-03-02T06:53:58.449Z,1004.43
2018-03-02T06:54:58.461Z,1004.47
2018-03-02T06:55:58.471Z,1004.45
2018-03-02T06:57:58.494Z,1004.51
2018-03-02T06:58:58.505Z,1004.49
2018-03-02T06:59:58.516Z,1004.56
2018-03-02T07:00:58.534Z,1004.49
2018-03-02T07:01:58.542Z,1004.52
2018-03-02T07:02:58.551Z,1004.6
2018-03-02T07:03:58.563Z,1004.57
2018-03-02T07:04:58.576Z,1004.51
2018-03-02T07:05:58.588Z,1004.54
2018-03-02T07:06:58.603Z,1004.55
2018-03-02T07:07:58.612Z,1004.57
2018-03-02T07:08:58.624Z,1004.54
2018-03-02T07:09:58.636Z,1004.53
2018-03-02T07:10:58.652Z,1004.59
2018-03-02T07:12:58.675Z,1004.52
2018-03-02T07:13:58.685Z,1004.51
2018-03-02T07:14:58.699Z,1004.53
2018-03-02T07:15:58.712Z,1004.52
2018-03-02T07:16:58.725Z,1004.51
2018-03-02T07:17:58.738Z,1004.54
2018-03-02T07:18:58.751Z,1004.52
2018-03-02T07:19:58.763Z,1004.47
2018-03-02T07:20:58.776Z,1004.47
2018-03-02T07:21:58.789Z,1004.52
2018-03-02T07:22:58.802Z,1004.51
2018-03-02T07:23:58.816Z,1004.54
2018-03-02T07:24:58.828Z,1004.51
2018-03-02T07:25:58.841Z,1004.46
2018-03-02T07:26:58.864Z,1004.46
2018-03-02T07:27:58.867Z,1004.47
2018-03-02T07:28:58.880Z,1004.43
2018-03-02T07:29:58.894Z,1004.41
2018-03-02T07:30:58.907Z,1004.44
2018-03-02T07:31:58.920Z,1004.38
2018-03-02T07:32:58.933Z,1004.39
2018-03-02T07:33:58.946Z,1004.4
2018-03-02T07:34:58.961Z,1004.39
2018-03-02T07:35:58.977Z,1004.38
2018-03-02T07:36:58.986Z,1004.35
2018-03-02T07:37:59.000Z,1004.28
2018-03-02T07:38:59.014Z,1004.25
2018-03-02T07:39:59.026Z,1004.21
2018-03-02T07:40:59.040Z,1004.15
2018-03-02T07:41:59.059Z,1004.15
2018-03-02T07:42:59.066Z,1004.12
2018-03-02T07:44:59.098Z,1004.08
2018-03-02T07:45:59.106Z,1003.98
2018-03-02T07:46:59.120Z,1004.04
2018-03-02T07:47:59.133Z,1003.97
2018-03-02T07:48:59.151Z,1003.96
2018-03-02T07:49:59.160Z,1003.97
2018-03-02T07:50:59.172Z,1003.97
2018-03-02T07:51:59.186Z,1003.89
2018-03-02T07:52:59.199Z,1003.94
2018-03-02T07:53:59.213Z,1003.83
2018-03-02T07:54:59.225Z,1003.9
2018-03-02T07:55:59.242Z,1003.81
2018-03-02T07:56:59.281Z,1003.8
2018-03-02T07:57:59.263Z,1003.82
2018-03-02T07:58:59.277Z,1003.85
2018-03-02T08:00:59.309Z,1003.81
2018-03-02T08:01:59.315Z,1003.8
2018-03-02T08:02:59.329Z,1003.79
2018-03-02T08:03:59.346Z,1003.8
2018-03-02T08:04:59.354Z,1003.76
2018-03-02T08:05:59.367Z,1003.8
2018-03-02T08:06:59.380Z,1003.85
2018-03-02T08:07:59.396Z,1003.8
2018-03-02T08:08:59.408Z,1003.79
2018-03-02T08:09:59.419Z,1003.85
2018-03-02T08:10:59.431Z,1003.79
2018-03-02T08:11:59.445Z,1003.77
2018-03-02T08:12:59.456Z,1003.72
2018-03-02T08:13:59.473Z,1003.7
2018-03-02T08:14:59.483Z,1003.69
2018-03-02T08:16:59.506Z,1003.62
2018-03-02T08:17:59.520Z,1003.72
2018-03-02T08:18:59.532Z,1003.67
2018-03-02T08:19:59.544Z,1003.7
2018-03-02T08:20:59.557Z,1003.67
2018-03-02T08:21:59.571Z,1003.65
2018-03-02T08:22:59.582Z,1003.66
2018-03-02T08:23:59.593Z,1003.63
2018-03-02T08:24:59.606Z,1003.64
2018-03-02T08:25:59.676Z,1003.57
2018-03-02T08:26:59.630Z,1003.59
2018-03-02T08:27:59.646Z,1003.53
2018-03-02T08:28:59.656Z,1003.49
2018-03-02T08:29:59.668Z,1003.49
2018-03-02T08:30:59.680Z,1003.45
2018-03-02T08:32:59.704Z,1003.5
2018-03-02T08:33:59.717Z,1003.52
2018-03-02T08:34:59.728Z,1003.48
2018-03-02T08:35:59.741Z,1003.55
2018-03-02T08:36:59.753Z,1003.56
2018-03-02T08:37:59.764Z,1003.52
2018-03-02T08:38:59.777Z,1003.53
2018-03-02T08:39:59.789Z,1003.52
2018-03-02T08:40:59.801Z,1003.44
2018-03-02T08:41:59.813Z,1003.46
2018-03-02T08:42:59.828Z,1003.4
2018-03-02T08:43:59.838Z,1003.4
2018-03-02T08:44:59.850Z,1003.5
2018-03-02T08:45:59.863Z,1003.45
2018-03-02T08:47:59.887Z,1003.36
2018-03-02T08:48:59.900Z,1003.28
2018-03-02T08:49:59.911Z,1003.31
2018-03-02T08:50:59.926Z,1003.29
2018-03-02T08:51:59.936Z,1003.38
2018-03-02T08:52:59.948Z,1003.27
2018-03-02T08:53:59.960Z,1003.3
2018-03-02T08:54:59.973Z,1003.21
2018-03-02T08:55:59.984Z,1003.24
2018-03-02T08:56:59.998Z,1003.18
2018-03-02T08:58:00.010Z,1003.21
2018-03-02T08:59:00.022Z,1003.2
2018-03-02T09:00:00.034Z,1003.2
2018-03-02T09:01:00.047Z,1003.19
2018-03-02T09:02:00.058Z,1003.16
2018-03-02T09:03:00.070Z,1003.1
2018-03-02T09:04:00.082Z,1003.16
2018-03-02T09:05:00.095Z,1003.1
2018-03-02T09:06:00.107Z,1003.07
2018-03-02T09:07:00.117Z,1003.08
2018-03-02T09:08:00.130Z,1003.07
2018-03-02T09:09:00.143Z,1003.04
2018-03-02T09:10:00.155Z,1003.04
2018-03-02T09:11:00.167Z,1002.97
2018-03-02T09:12:00.179Z,1002.95
2018-03-02T09:13:00.192Z,1002.94
2018-03-02T09:14:00.204Z,1002.94
2018-03-02T09:15:00.215Z,1002.87
2018-03-02T09:16:00.231Z,1002.82
2018-03-02T09:17:00.242Z,1002.75
2018-03-02T09:18:00.252Z,1002.82
2018-03-02T09:20:00.278Z,1002.77
2018-03-02T09:21:00.293Z,1002.78
2018-03-02T09:22:00.302Z,1002.74
2018-03-02T09:23:00.315Z,1002.76
2018-03-02T09:24:00.327Z,1002.84
2018-03-02T09:25:00.340Z,1002.71
2018-03-02T09:26:00.352Z,1002.66
2018-03-02T09:27:00.366Z,1002.66
2018-03-02T09:28:00.385Z,1002.63
2018-03-02T09:29:00.389Z,1002.64
2018-03-02T09:30:00.441Z,1002.57
2018-03-02T09:31:00.414Z,1002.6
2018-03-02T09:32:00.428Z,1002.52
2018-03-02T09:33:00.439Z,1002.52
2018-03-02T09:34:00.452Z,1002.49
2018-03-02T09:36:00.480Z,1002.52
2018-03-02T09:37:00.489Z,1002.58
2018-03-02T09:38:00.502Z,1002.56
2018-03-02T09:39:00.516Z,1002.54
2018-03-02T09:40:00.527Z,1002.49
2018-03-02T09:41:00.540Z,1002.5
2018-03-02T09:42:00.557Z,1002.5
2018-03-02T09:43:00.566Z,1002.51
2018-03-02T09:44:00.578Z,1002.51
2018-03-02T09:45:00.591Z,1002.45
2018-03-02T09:46:00.604Z,1002.44
2018-03-02T09:47:00.616Z,1002.35
2018-03-02T09:48:00.627Z,1002.35
2018-03-02T09:49:00.641Z,1002.35
2018-03-02T09:50:00.654Z,1002.32
2018-03-02T09:52:00.679Z,1002.26
2018-03-02T09:53:00.692Z,1002.25
2018-03-02T09:54:00.715Z,1002.26
2018-03-02T09:55:00.717Z,1002.27
2018-03-02T09:56:00.730Z,1002.22
2018-03-02T09:57:00.742Z,1002.14
2018-03-02T09:58:00.763Z,1002.15
2018-03-02T09:59:00.767Z,1002.14
2018-03-02T10:00:00.781Z,1002.17
2018-03-02T10:01:00.837Z,1002.17
2018-03-02T10:02:00.806Z,1002.13
2018-03-02T10:03:00.819Z,1002.17
2018-03-02T10:04:00.835Z,1002.11
2018-03-02T10:05:00.844Z,1002.1
2018-03-02T10:06:00.856Z,1002.1
2018-03-02T10:08:00.882Z,1002.05
2018-03-02T10:09:00.896Z,1002.03
2018-03-02T10:10:00.907Z,1002
2018-03-02T10:11:00.920Z,1001.98
2018-03-02T10:12:00.933Z,1001.99
2018-03-02T10:13:00.945Z,1002.08
2018-03-02T10:14:00.958Z,1001.97
2018-03-02T10:15:00.970Z,1002.04
2018-03-02T10:16:00.985Z,1002.07
2018-03-02T10:17:00.996Z,1001.99
2018-03-02T10:18:01.009Z,1001.97
2018-03-02T10:19:01.022Z,1001.99
2018-03-02T10:20:01.034Z,1001.99
2018-03-02T10:21:01.049Z,1001.93
2018-03-02T10:23:01.075Z,1001.88
2018-03-02T10:24:01.086Z,1001.86
2018-03-02T10:25:01.102Z,1001.84
2018-03-02T10:26:01.114Z,1001.93
2018-03-02T10:27:01.126Z,1001.8
2018-03-02T10:28:01.137Z,1001.81
2018-03-02T10:29:01.154Z,1001.84
2018-03-02T10:30:01.163Z,1001.86
2018-03-02T10:31:01.176Z,1001.71
2018-03-02T10:32:01.188Z,1001.77
2018-03-02T10:33:01.209Z,1001.81
2018-03-02T10:34:01.213Z,1001.81
2018-03-02T10:35:01.225Z,1001.7
2018-03-02T10:36:01.238Z,1001.67
2018-03-02T10:37:01.251Z,1001.66
2018-03-02T10:38:01.264Z,1001.6
2018-03-02T10:39:01.275Z,1001.63
2018-03-02T10:40:01.287Z,1001.63
2018-03-02T10:41:01.299Z,1001.6
2018-03-02T10:42:01.310Z,1001.81
2018-03-02T10:43:01.322Z,1001.55
2018-03-02T10:44:01.336Z,1001.52
2018-03-02T10:45:01.347Z,1001.47
2018-03-02T10:46:01.357Z,1001.52
2018-03-02T10:47:01.370Z,1001.5
2018-03-02T10:48:01.381Z,1001.54
2018-03-02T10:49:01.394Z,1001.5
2018-03-02T10:50:01.405Z,1001.44
2018-03-02T10:51:01.417Z,1001.41
2018-03-02T10:52:01.429Z,1001.39
2018-03-02T10:53:01.439Z,1001.41
2018-03-02T10:55:01.463Z,1001.42
2018-03-02T10:56:01.474Z,1001.46
2018-03-02T10:57:01.485Z,1001.42
2018-03-02T10:58:01.496Z,1001.42
2018-03-02T10:59:01.508Z,1001.41
2018-03-02T11:00:01.520Z,1001.39
2018-03-02T11:01:01.531Z,1001.32
2018-03-02T11:02:01.562Z,1001.4
2018-03-02T11:03:01.553Z,1001.31
2018-03-02T11:04:01.564Z,1001.31
2018-03-02T11:05:01.575Z,1001.26
2018-03-02T11:06:01.587Z,1001.26
2018-03-02T11:07:01.601Z,1001.34
2018-03-02T11:08:01.614Z,1001.22
2018-03-02T11:09:01.664Z,1001.24
2018-03-02T11:11:01.643Z,1001.2
2018-03-02T11:12:01.654Z,1001.16
2018-03-02T11:13:01.665Z,1001.12
2018-03-02T11:14:01.680Z,1001.25
2018-03-02T11:15:01.687Z,1001.12
2018-03-02T11:16:01.698Z,1001.12
2018-03-02T11:17:01.710Z,1001.07
2018-03-02T11:18:01.721Z,1001.14
2018-03-02T11:19:01.731Z,1001.08
2018-03-02T11:20:01.742Z,1001.07
2018-03-02T11:21:01.754Z,1001.1
2018-03-02T11:22:01.765Z,1001.06
2018-03-02T11:23:01.776Z,1001.04
2018-03-02T11:24:01.787Z,1001.07
2018-03-02T11:25:01.798Z,1001.04
2018-03-02T11:27:01.820Z,1001.02
2018-03-02T11:28:01.830Z,1000.97
2018-03-02T11:29:01.924Z,1000.97
2018-03-02T11:30:01.853Z,1000.98
2018-03-02T11:31:01.864Z,1001.01
2018-03-02T11:32:01.875Z,1001.05
2018-03-02T11:33:01.888Z,1001.05
2018-03-02T11:34:01.896Z,1000.95
2018-03-02T11:35:01.907Z,1000.91
2018-03-02T11:36:01.919Z,1000.84
2018-03-02T11:37:01.929Z,1000.86
2018-03-02T11:38:01.940Z,1000.83
2018-03-02T11:39:01.952Z,1000.85
2018-03-02T11:40:01.963Z,1000.8
2018-03-02T11:41:01.973Z,1000.8
2018-03-02T11:43:01.996Z,1000.74
2018-03-02T11:44:02.006Z,1000.79
2018-03-02T11:45:02.026Z,1000.71
2018-03-02T11:46:02.028Z,1000.76
2018-03-02T11:47:02.078Z,1000.79
2018-03-02T11:48:02.049Z,1000.71
2018-03-02T11:49:02.061Z,1000.69
2018-03-02T11:50:02.072Z,1000.67
2018-03-02T11:51:02.083Z,1000.67
2018-03-02T11:52:02.094Z,1000.79
2018-03-02T11:53:02.109Z,1000.72
2018-03-02T11:54:02.116Z,1000.7
2018-03-02T11:55:02.128Z,1000.76
2018-03-02T11:56:02.138Z,1000.65
2018-03-02T11:58:02.164Z,1000.58
2018-03-02T11:59:02.172Z,1000.49
2018-03-02T12:00:02.183Z,1000.48
2018-03-02T12:01:02.195Z,1000.49
2018-03-02T12:02:02.206Z,1000.53
2018-03-02T12:03:02.216Z,1000.48
2018-03-02T12:04:02.232Z,1000.5
2018-03-02T12:05:02.238Z,1000.48
2018-03-02T12:06:02.248Z,1000.56
2018-03-02T12:07:02.260Z,1000.51
2018-03-02T12:08:02.273Z,1000.49
2018-03-02T12:09:02.282Z,1000.53
2018-03-02T12:10:02.293Z,1000.46
2018-03-02T12:11:02.303Z,1000.46
2018-03-02T12:12:02.315Z,1000.47
2018-03-02T12:13:02.326Z,1000.41
2018-03-02T12:14:02.336Z,1000.45
2018-03-02T12:15:02.348Z,1000.36
2018-03-02T12:16:02.359Z,1000.34
2018-03-02T12:17:02.369Z,1000.42
2018-03-02T12:18:02.380Z,1000.37
2018-03-02T12:19:02.392Z,1000.41
2018-03-02T12:20:02.403Z,1000.35
2018-03-02T12:21:02.414Z,1000.37
2018-03-02T12:22:02.425Z,1000.39
2018-03-02T12:23:02.436Z,1000.37
2018-03-02T12:24:02.447Z,1000.32
2018-03-02T12:25:02.457Z,1000.33
2018-03-02T12:26:02.469Z,1000.37
2018-03-02T12:27:02.480Z,1000.39
2018-03-02T12:28:02.490Z,1000.43
2018-03-02T12:30:02.512Z,1000.43
2018-03-02T12:31:02.526Z,1000.38
2018-03-02T12:32:02.534Z,1000.32
2018-03-02T12:33:02.545Z,1000.32
2018-03-02T12:34:02.556Z,1000.36
2018-03-02T12:35:02.617Z,1000.4
2018-03-02T12:36:02.579Z,1000.37
2018-03-02T12:37:02.588Z,1000.3
2018-03-02T12:38:02.600Z,1000.3
2018-03-02T12:39:02.610Z,1000.39
2018-03-02T12:40:02.622Z,1000.41
2018-03-02T12:41:02.633Z,1000.39
2018-03-02T12:42:02.644Z,1000.37
2018-03-02T12:43:02.653Z,1000.33
2018-03-02T12:44:02.666Z,1000.35
2018-03-02T12:46:02.687Z,1000.33
2018-03-02T12:47:02.698Z,1000.26
2018-03-02T12:48:02.712Z,1000.27
2018-03-02T12:49:02.723Z,1000.23
2018-03-02T12:50:02.730Z,1000.23